createdAt,value
2022-08-26T00:02:02.473Z,19.45
2022-08-26T00:04:32.415Z,19.42
2022-08-26T00:07:00.980Z,19.38
2022-08-26T00:09:31.245Z,19.37
2022-08-26T00:11:59.823Z,19.31
2022-08-26T00:14:30.965Z,19.28
2022-08-26T00:17:01.834Z,19.24
2022-08-26T00:19:30.569Z,19.22
2022-08-26T00:21:59.665Z,19.18
2022-08-26T00:24:28.486Z,19.13
2022-08-26T00:26:57.119Z,19.10
2022-08-26T00:29:25.799Z,19.07
2022-08-26T00:31:54.798Z,19.02
2022-08-26T00:34:24.764Z,19.00
2022-08-26T00:36:53.452Z,18.97
2022-08-26T00:39:22.967Z,18.95
2022-08-26T00:41:51.744Z,18.96
2022-08-26T00:44:21.672Z,18.98
2022-08-26T00:46:56.669Z,18.98
2022-08-26T00:49:38.093Z,18.95
2022-08-26T00:52:13.256Z,18.88
2022-08-26T00:54:52.057Z,18.84
2022-08-26T00:57:24.229Z,18.76
2022-08-26T01:00:01.086Z,18.78
2022-08-26T01:02:30.181Z,18.74
2022-08-26T01:05:04.009Z,18.70
2022-08-26T01:07:35.504Z,18.65
2022-08-26T01:10:11.496Z,18.65
2022-08-26T01:12:49.256Z,18.61
2022-08-26T01:15:24.643Z,18.63
2022-08-26T01:17:53.902Z,18.63
2022-08-26T01:20:48.011Z,18.66
2022-08-26T01:23:19.356Z,18.55
2022-08-26T01:25:57.667Z,18.54
2022-08-26T01:28:32.532Z,18.45
2022-08-26T01:31:05.079Z,18.41
2022-08-26T01:33:44.655Z,18.38
2022-08-26T01:36:15.280Z,18.31
2022-08-26T01:38:46.812Z,18.36
2022-08-26T01:41:19.931Z,18.34
2022-08-26T01:43:58.643Z,18.34
2022-08-26T01:46:31.174Z,18.28
2022-08-26T01:49:06.507Z,18.32
2022-08-26T01:51:37.997Z,18.27
2022-08-26T01:54:12.105Z,18.27
2022-08-26T01:56:43.100Z,18.22
2022-08-26T01:59:17.951Z,18.21
2022-08-26T02:01:49.216Z,18.15
2022-08-26T02:04:26.615Z,18.15
2022-08-26T02:06:56.942Z,18.09
2022-08-26T02:09:29.368Z,18.08
2022-08-26T02:12:01.944Z,18.06
2022-08-26T02:14:43.577Z,18.05
2022-08-26T02:17:13.369Z,18.02
2022-08-26T02:19:47.704Z,18.00
2022-08-26T02:22:21.782Z,17.95
2022-08-26T02:24:54.933Z,17.93
2022-08-26T02:27:28.070Z,17.89
2022-08-26T02:30:01.447Z,17.85
2022-08-26T02:32:30.135Z,17.83
2022-08-26T02:34:58.888Z,17.83
2022-08-26T02:37:30.983Z,17.82
2022-08-26T02:40:01.513Z,17.81
2022-08-26T02:42:30.272Z,17.78
2022-08-26T02:44:59.822Z,17.75
2022-08-26T02:47:29.280Z,17.72
2022-08-26T02:50:01.904Z,17.70
2022-08-26T02:52:30.806Z,17.68
2022-08-26T02:55:02.231Z,17.66
2022-08-26T02:57:31.213Z,17.67
2022-08-26T03:00:01.993Z,17.65
2022-08-26T03:02:31.610Z,17.67
2022-08-26T03:05:02.029Z,17.63
2022-08-26T03:07:32.497Z,17.60
2022-08-26T03:10:06.868Z,17.55
2022-08-26T03:12:37.694Z,17.51
2022-08-26T03:15:15.936Z,17.49
2022-08-26T03:17:49.139Z,17.45
2022-08-26T03:20:19.863Z,17.47
2022-08-26T03:22:51.462Z,17.52
2022-08-26T03:25:23.086Z,17.46
2022-08-26T03:27:52.760Z,17.42
2022-08-26T03:30:45.397Z,17.40
2022-08-26T03:33:15.792Z,17.36
2022-08-26T03:35:47.808Z,17.34
2022-08-26T03:38:20.539Z,17.29
2022-08-26T03:40:50.782Z,17.25
2022-08-26T03:43:21.520Z,17.24
2022-08-26T03:45:50.133Z,17.22
2022-08-26T03:48:19.918Z,17.14
2022-08-26T03:50:48.797Z,17.16
2022-08-26T03:53:20.536Z,17.12
2022-08-26T03:55:51.962Z,17.10
2022-08-26T03:58:20.981Z,17.15
2022-08-26T04:00:55.365Z,17.25
2022-08-26T04:03:39.096Z,17.32
2022-08-26T04:06:08.361Z,17.35
2022-08-26T04:08:39.093Z,17.38
2022-08-26T04:11:09.228Z,17.42
2022-08-26T04:13:38.986Z,17.45
2022-08-26T04:16:08.705Z,17.48
2022-08-26T04:18:46.585Z,17.51
2022-08-26T04:21:16.144Z,17.65
2022-08-26T04:23:47.759Z,17.67
2022-08-26T04:26:20.334Z,17.71
2022-08-26T04:28:49.601Z,17.76
2022-08-26T04:31:19.924Z,17.82
2022-08-26T04:33:51.529Z,17.88
2022-08-26T04:36:20.466Z,17.94
2022-08-26T04:38:50.718Z,17.96
2022-08-26T04:41:21.646Z,18.03
2022-08-26T04:43:50.899Z,18.06
2022-08-26T04:46:24.448Z,18.17
2022-08-26T04:48:54.796Z,18.19
2022-08-26T04:51:28.113Z,18.24
2022-08-26T04:53:58.340Z,18.27
2022-08-26T04:56:31.454Z,18.33
2022-08-26T04:59:01.140Z,18.43
2022-08-26T05:01:31.717Z,18.54
2022-08-26T05:04:01.722Z,18.66
2022-08-26T05:06:35.561Z,18.75
2022-08-26T05:09:06.168Z,18.85
2022-08-26T05:11:37.353Z,18.96
2022-08-26T05:14:06.919Z,19.09
2022-08-26T05:16:36.330Z,19.23
2022-08-26T05:19:06.962Z,19.35
2022-08-26T05:21:38.757Z,19.49
2022-08-26T05:24:08.025Z,19.63
2022-08-26T05:26:37.913Z,19.80
2022-08-26T05:29:07.590Z,19.98
2022-08-26T05:31:36.875Z,20.18
2022-08-26T05:34:05.978Z,20.41
2022-08-26T05:36:38.026Z,20.53
2022-08-26T05:39:08.078Z,20.71
2022-08-26T05:41:44.849Z,21.02
2022-08-26T05:44:18.748Z,21.20
2022-08-26T05:46:47.684Z,21.53
2022-08-26T05:49:17.016Z,21.66
2022-08-26T05:51:47.967Z,21.93
2022-08-26T05:54:22.211Z,22.20
2022-08-26T05:56:53.192Z,22.40
2022-08-26T05:59:24.446Z,22.55
2022-08-26T06:01:54.970Z,22.73
2022-08-26T06:04:27.661Z,22.79
2022-08-26T06:06:59.865Z,22.79
2022-08-26T06:09:28.932Z,23.00
2022-08-26T06:12:01.941Z,22.90
2022-08-26T06:14:30.869Z,22.94
2022-08-26T06:16:59.896Z,23.11
2022-08-26T06:19:32.906Z,23.27
2022-08-26T06:22:23.853Z,23.35
2022-08-26T06:25:10.641Z,23.55
2022-08-26T06:27:40.840Z,23.72
2022-08-26T06:30:11.168Z,23.86
2022-08-26T06:32:41.254Z,24.64
2022-08-26T06:35:12.131Z,24.22
2022-08-26T06:37:42.839Z,24.22
2022-08-26T06:40:12.726Z,24.31
2022-08-26T06:42:42.706Z,24.46
2022-08-26T06:45:12.922Z,24.70
2022-08-26T06:47:41.896Z,24.73
2022-08-26T06:50:11.059Z,24.89
2022-08-26T06:52:42.934Z,25.00
2022-08-26T06:55:11.722Z,25.41
2022-08-26T06:57:41.971Z,25.55
2022-08-26T07:00:12.641Z,25.87
2022-08-26T07:02:41.325Z,26.47
2022-08-26T07:05:16.358Z,27.03
2022-08-26T07:07:44.924Z,27.72
2022-08-26T07:10:13.470Z,27.58
2022-08-26T07:12:43.710Z,27.96
2022-08-26T07:15:16.649Z,29.07
2022-08-26T07:17:45.737Z,29.21
2022-08-26T07:20:14.447Z,29.23
2022-08-26T07:22:43.823Z,29.74
2022-08-26T07:25:13.015Z,31.35
2022-08-26T07:27:42.969Z,31.25
2022-08-26T07:30:14.849Z,32.91
2022-08-26T07:32:43.755Z,32.75
2022-08-26T07:35:12.321Z,33.76
2022-08-26T07:37:40.889Z,33.60
2022-08-26T07:40:11.912Z,33.83
2022-08-26T07:42:41.094Z,34.26
2022-08-26T07:45:11.523Z,34.35
2022-08-26T07:47:40.397Z,35.62
2022-08-26T07:50:10.237Z,35.52
2022-08-26T07:52:40.281Z,35.50
2022-08-26T07:55:11.618Z,35.83
2022-08-26T07:57:40.236Z,36.09
2022-08-26T08:00:16.113Z,36.24
2022-08-26T08:02:45.677Z,36.04
2022-08-26T08:05:19.478Z,36.43
2022-08-26T08:07:49.331Z,36.50
2022-08-26T08:10:26.688Z,35.78
2022-08-26T08:12:57.636Z,36.27
2022-08-26T08:15:33.201Z,36.19
2022-08-26T08:18:04.897Z,36.71
2022-08-26T08:20:35.087Z,36.38
2022-08-26T08:23:05.810Z,36.36
2022-08-26T08:25:36.042Z,36.79
2022-08-26T08:28:05.410Z,36.76
2022-08-26T08:30:41.249Z,37.51
2022-08-26T08:33:10.325Z,36.42
2022-08-26T08:35:42.480Z,36.81
2022-08-26T08:38:11.853Z,37.31
2022-08-26T08:40:42.813Z,38.36
2022-08-26T08:43:14.629Z,39.84
2022-08-26T08:45:51.715Z,37.90
2022-08-26T08:48:27.749Z,37.82
2022-08-26T08:51:07.439Z,38.33
2022-08-26T08:53:41.677Z,37.48
2022-08-26T08:56:24.605Z,36.86
2022-08-26T08:59:02.317Z,37.64
2022-08-26T09:01:54.145Z,37.56
2022-08-26T09:04:52.386Z,36.51
2022-08-26T09:07:27.473Z,37.68
2022-08-26T09:10:02.101Z,36.32
2022-08-26T09:12:35.745Z,35.97
2022-08-26T09:15:16.648Z,35.97
2022-08-26T09:17:59.978Z,36.31
2022-08-26T09:20:45.656Z,36.79
2022-08-26T09:23:15.455Z,38.46
2022-08-26T09:25:52.466Z,36.80
2022-08-26T09:28:26.643Z,36.45
2022-08-26T09:31:22.031Z,36.64
2022-08-26T09:34:17.404Z,37.24
2022-08-26T09:36:48.614Z,39.28
2022-08-26T09:39:34.592Z,36.08
2022-08-26T09:42:12.827Z,36.34
2022-08-26T09:45:10.534Z,35.42
2022-08-26T09:47:53.594Z,35.89
2022-08-26T09:50:30.976Z,36.41
2022-08-26T09:53:15.855Z,36.07
2022-08-26T09:55:47.658Z,36.65
2022-08-26T09:58:34.732Z,34.96
2022-08-26T10:01:10.875Z,35.61
2022-08-26T10:03:41.675Z,36.54
2022-08-26T10:06:26.801Z,35.30
2022-08-26T10:08:59.973Z,34.52
2022-08-26T10:11:40.473Z,35.28
2022-08-26T10:14:20.182Z,34.36
2022-08-26T10:17:01.090Z,34.10
2022-08-26T10:19:55.805Z,35.39
2022-08-26T10:22:39.594Z,34.84
2022-08-26T10:25:15.542Z,34.82
2022-08-26T10:27:55.620Z,34.43
2022-08-26T10:30:31.966Z,34.24
2022-08-26T10:33:07.899Z,34.50
2022-08-26T10:35:45.622Z,34.48
2022-08-26T10:38:21.290Z,34.15
2022-08-26T10:41:00.735Z,34.03
2022-08-26T10:43:36.846Z,34.38
2022-08-26T10:46:17.173Z,36.24
2022-08-26T10:48:56.215Z,35.36
2022-08-26T10:51:35.651Z,35.39
2022-08-26T10:54:15.626Z,35.20
2022-08-26T10:56:55.641Z,35.55
2022-08-26T10:59:44.706Z,37.30
2022-08-26T11:02:25.138Z,36.90
2022-08-26T11:05:00.014Z,37.07
2022-08-26T11:07:43.315Z,37.91
2022-08-26T11:11:04.553Z,37.72
2022-08-26T11:14:03.032Z,38.50
2022-08-26T11:16:42.890Z,38.35
2022-08-26T11:20:00.909Z,36.71
2022-08-26T11:22:38.113Z,36.84
2022-08-26T11:25:18.279Z,35.45
2022-08-26T11:28:06.212Z,35.66
2022-08-26T11:30:44.200Z,36.71
2022-08-26T11:33:59.911Z,36.63
2022-08-26T11:37:01.456Z,35.25
2022-08-26T11:39:53.995Z,35.76
2022-08-26T11:42:37.002Z,34.82
2022-08-26T11:45:23.639Z,34.35
2022-08-26T11:47:52.532Z,34.48
2022-08-26T11:50:27.048Z,34.88
2022-08-26T11:53:02.339Z,33.90
2022-08-26T11:55:34.354Z,33.23
2022-08-26T11:58:07.691Z,33.17
2022-08-26T12:00:55.982Z,33.14
2022-08-26T12:03:36.254Z,32.62
2022-08-26T12:06:15.792Z,32.49
2022-08-26T12:08:45.998Z,32.28
2022-08-26T12:11:24.450Z,32.53
2022-08-26T12:14:00.442Z,32.30
2022-08-26T12:16:32.472Z,31.95
2022-08-26T12:19:01.742Z,32.05
2022-08-26T12:21:34.880Z,31.73
2022-08-26T12:24:05.667Z,31.55
2022-08-26T12:26:38.010Z,31.67
2022-08-26T12:29:19.805Z,31.37
2022-08-26T12:31:49.861Z,31.68
2022-08-26T12:34:19.402Z,31.51
2022-08-26T12:36:54.874Z,31.61
2022-08-26T12:39:30.380Z,31.78
2022-08-26T12:42:01.334Z,31.89
2022-08-26T12:44:53.686Z,31.92
2022-08-26T12:47:43.062Z,31.95
2022-08-26T12:50:19.472Z,32.06
2022-08-26T12:53:00.708Z,32.13
2022-08-26T12:55:40.638Z,32.24
2022-08-26T12:58:28.090Z,32.53
2022-08-26T13:00:59.443Z,32.43
2022-08-26T13:03:43.418Z,32.62
2022-08-26T13:06:17.780Z,33.14
2022-08-26T13:08:51.523Z,32.92
2022-08-26T13:11:23.679Z,32.48
2022-08-26T13:13:56.756Z,32.81
2022-08-26T13:16:26.745Z,32.56
2022-08-26T13:18:59.850Z,32.31
2022-08-26T13:21:37.835Z,32.36
2022-08-26T13:24:11.822Z,32.21
2022-08-26T13:26:41.652Z,32.10
2022-08-26T13:29:11.165Z,32.13
2022-08-26T13:31:43.812Z,32.78
2022-08-26T13:34:19.220Z,32.39
2022-08-26T13:36:48.747Z,32.27
2022-08-26T13:39:19.998Z,32.79
2022-08-26T13:41:49.388Z,32.27
2022-08-26T13:44:18.363Z,33.03
2022-08-26T13:46:47.371Z,32.74
2022-08-26T13:49:16.313Z,32.38
2022-08-26T13:51:45.189Z,32.43
2022-08-26T13:54:14.139Z,32.44
2022-08-26T13:56:44.241Z,31.92
2022-08-26T13:59:12.999Z,31.82
2022-08-26T14:01:41.929Z,31.74
2022-08-26T14:04:10.596Z,31.80
2022-08-26T14:06:39.234Z,31.93
2022-08-26T14:09:08.088Z,31.94
2022-08-26T14:11:54.241Z,32.02
2022-08-26T14:14:25.184Z,31.88
2022-08-26T14:16:59.719Z,31.89
2022-08-26T14:19:31.047Z,31.94
2022-08-26T14:22:01.492Z,31.84
2022-08-26T14:24:31.277Z,31.81
2022-08-26T14:26:59.906Z,31.77
2022-08-26T14:29:29.860Z,31.79
2022-08-26T14:32:03.563Z,31.76
2022-08-26T14:34:32.211Z,31.65
2022-08-26T14:37:07.695Z,31.68
2022-08-26T14:39:37.176Z,31.60
2022-08-26T14:42:07.089Z,31.66
2022-08-26T14:44:37.924Z,31.72
2022-08-26T14:47:07.636Z,31.74
2022-08-26T14:49:36.911Z,31.69
2022-08-26T14:52:05.739Z,31.62
2022-08-26T14:54:34.614Z,31.46
2022-08-26T14:57:07.144Z,31.47
2022-08-26T14:59:40.470Z,31.47
2022-08-26T15:02:20.333Z,31.40
2022-08-26T15:05:01.487Z,31.40
2022-08-26T15:07:30.119Z,31.39
2022-08-26T15:09:59.157Z,31.36
2022-08-26T15:12:28.226Z,31.25
2022-08-26T15:14:58.170Z,31.22
2022-08-26T15:17:26.942Z,31.31
2022-08-26T15:19:55.738Z,31.26
2022-08-26T15:22:29.767Z,31.23
2022-08-26T15:24:59.288Z,31.27
2022-08-26T15:27:28.277Z,31.11
2022-08-26T15:29:58.399Z,30.99
2022-08-26T15:32:27.193Z,30.73
2022-08-26T15:34:55.903Z,30.70
2022-08-26T15:37:24.719Z,30.70
2022-08-26T15:39:53.867Z,30.64
2022-08-26T15:42:22.501Z,30.58
2022-08-26T15:44:52.406Z,30.46
2022-08-26T15:47:23.834Z,30.39
2022-08-26T15:49:52.493Z,30.31
2022-08-26T15:52:22.328Z,30.32
2022-08-26T15:54:51.494Z,30.26
2022-08-26T15:57:20.237Z,30.25
2022-08-26T15:59:49.135Z,30.27
2022-08-26T16:02:19.044Z,30.24
2022-08-26T16:04:49.052Z,30.30
2022-08-26T16:07:18.009Z,30.19
2022-08-26T16:09:49.113Z,30.20
2022-08-26T16:12:22.813Z,30.20
2022-08-26T16:14:53.991Z,30.07
2022-08-26T16:17:22.621Z,30.03
2022-08-26T16:19:52.855Z,29.98
2022-08-26T16:22:21.459Z,29.96
2022-08-26T16:24:50.812Z,29.90
2022-08-26T16:27:19.613Z,29.76
2022-08-26T16:29:52.045Z,29.62
2022-08-26T16:32:20.878Z,29.67
2022-08-26T16:34:56.527Z,29.54
2022-08-26T16:37:27.284Z,29.54
2022-08-26T16:39:55.994Z,29.45
2022-08-26T16:42:24.670Z,29.43
2022-08-26T16:44:53.462Z,29.40
2022-08-26T16:47:23.229Z,29.30
2022-08-26T16:49:52.197Z,29.27
2022-08-26T16:52:21.579Z,29.17
2022-08-26T16:54:54.982Z,29.15
2022-08-26T16:57:23.899Z,29.02
2022-08-26T16:59:52.588Z,28.94
2022-08-26T17:02:21.227Z,28.86
2022-08-26T17:04:50.243Z,28.79
2022-08-26T17:07:19.143Z,28.67
2022-08-26T17:09:47.965Z,28.50
2022-08-26T17:12:17.944Z,28.44
2022-08-26T17:14:46.646Z,28.36
2022-08-26T17:17:15.911Z,28.25
2022-08-26T17:19:47.080Z,28.17
2022-08-26T17:22:17.314Z,28.06
2022-08-26T17:24:46.046Z,27.96
2022-08-26T17:27:14.762Z,27.81
2022-08-26T17:29:45.013Z,27.68
2022-08-26T17:32:13.704Z,27.54
2022-08-26T17:34:42.476Z,27.45
2022-08-26T17:37:11.289Z,27.32
2022-08-26T17:39:43.921Z,27.25
2022-08-26T17:42:13.433Z,27.12
2022-08-26T17:44:42.268Z,26.99
2022-08-26T17:47:13.257Z,26.93
2022-08-26T17:49:42.193Z,26.84
2022-08-26T17:52:11.666Z,26.72
2022-08-26T17:54:40.599Z,26.58
2022-08-26T17:57:10.702Z,26.46
2022-08-26T17:59:40.957Z,26.33
2022-08-26T18:02:09.825Z,26.22
2022-08-26T18:04:39.799Z,26.12
2022-08-26T18:07:08.635Z,26.01
2022-08-26T18:09:37.429Z,25.92
2022-08-26T18:12:06.879Z,25.83
2022-08-26T18:14:35.490Z,25.71
2022-08-26T18:17:04.474Z,25.63
2022-08-26T18:19:33.259Z,25.56
2022-08-26T18:22:03.243Z,25.47
2022-08-26T18:24:32.675Z,25.37
2022-08-26T18:27:01.359Z,25.28
2022-08-26T18:29:29.979Z,25.23
2022-08-26T18:31:58.806Z,25.13
2022-08-26T18:34:31.740Z,25.05
2022-08-26T18:37:02.250Z,24.93
2022-08-26T18:39:31.023Z,24.89
2022-08-26T18:41:59.625Z,24.86
2022-08-26T18:44:28.419Z,24.81
2022-08-26T18:46:56.951Z,24.79
2022-08-26T18:49:25.603Z,24.75
2022-08-26T18:51:54.640Z,24.75
2022-08-26T18:54:24.550Z,24.71
2022-08-26T18:56:53.163Z,24.67
2022-08-26T18:59:30.239Z,24.64
2022-08-26T19:01:59.633Z,24.59
2022-08-26T19:04:28.680Z,24.53
2022-08-26T19:06:57.332Z,24.46
2022-08-26T19:09:27.378Z,24.39
2022-08-26T19:14:31.162Z,24.22
2022-08-26T19:17:01.446Z,24.16
2022-08-26T19:19:30.550Z,24.07
2022-08-26T19:21:59.120Z,24.03
2022-08-26T19:24:29.474Z,23.98
2022-08-26T19:27:01.377Z,23.93
2022-08-26T19:29:33.931Z,23.84
2022-08-26T19:32:04.005Z,23.77
2022-08-26T19:34:32.874Z,23.71
2022-08-26T19:37:01.510Z,23.67
2022-08-26T19:39:31.464Z,23.65
2022-08-26T19:42:00.588Z,23.61
2022-08-26T19:44:46.786Z,23.55
2022-08-26T19:47:15.637Z,23.46
2022-08-26T19:49:44.813Z,23.39
2022-08-26T19:52:13.959Z,23.34
2022-08-26T19:54:44.476Z,23.29
2022-08-26T19:57:13.324Z,23.23
2022-08-26T19:59:42.578Z,23.17
2022-08-26T20:02:12.962Z,23.09
2022-08-26T20:04:41.866Z,23.03
2022-08-26T20:07:14.188Z,22.98
2022-08-26T20:09:49.768Z,22.92
2022-08-26T20:12:18.784Z,22.84
2022-08-26T20:14:47.943Z,22.81
2022-08-26T20:17:17.167Z,22.75
2022-08-26T20:20:03.480Z,22.73
2022-08-26T20:22:32.414Z,22.70
2022-08-26T20:25:02.531Z,22.70
2022-08-26T20:27:37.873Z,22.66
2022-08-26T20:30:11.111Z,22.59
2022-08-26T20:32:40.589Z,22.53
2022-08-26T20:35:13.589Z,22.47
2022-08-26T20:37:42.799Z,22.41
2022-08-26T20:40:15.485Z,22.42
2022-08-26T20:42:44.251Z,22.37
2022-08-26T20:45:13.301Z,22.36
2022-08-26T20:47:42.834Z,22.33
2022-08-26T20:50:11.617Z,22.30
2022-08-26T20:52:40.461Z,22.28
2022-08-26T20:55:10.468Z,22.23
2022-08-26T20:57:43.167Z,22.25
2022-08-26T21:00:16.166Z,22.19
2022-08-26T21:02:46.326Z,22.19
2022-08-26T21:05:15.241Z,22.16
2022-08-26T21:07:44.084Z,22.15
2022-08-26T21:10:13.837Z,22.13
2022-08-26T21:12:44.033Z,22.08
2022-08-26T21:15:12.972Z,22.05
2022-08-26T21:17:41.605Z,22.06
2022-08-26T21:20:11.160Z,21.99
2022-08-26T21:22:39.969Z,21.95
2022-08-26T21:25:10.247Z,21.92
2022-08-26T21:27:39.855Z,21.91
2022-08-26T21:30:12.409Z,21.92
2022-08-26T21:32:41.245Z,21.85
2022-08-26T21:35:11.282Z,21.80
2022-08-26T21:37:39.892Z,21.84
2022-08-26T21:40:10.502Z,21.79
2022-08-26T21:42:39.263Z,21.79
2022-08-26T21:45:10.803Z,21.85
2022-08-26T21:47:40.678Z,21.84
2022-08-26T21:50:10.514Z,21.82
2022-08-26T21:52:39.527Z,21.86
2022-08-26T21:55:11.762Z,21.86
2022-08-26T21:57:40.933Z,21.89
2022-08-26T22:00:16.309Z,21.91
2022-08-26T22:02:45.060Z,21.86
2022-08-26T22:05:14.097Z,21.86
2022-08-26T22:07:42.689Z,21.89
2022-08-26T22:10:11.534Z,21.88
2022-08-26T22:12:40.366Z,21.88
2022-08-26T22:15:12.206Z,21.89
2022-08-26T22:17:41.040Z,21.88
2022-08-26T22:20:11.532Z,21.89
2022-08-26T22:22:45.820Z,21.89
2022-08-26T22:25:14.839Z,21.95
2022-08-26T22:27:43.439Z,21.99
2022-08-26T22:30:14.775Z,21.96
2022-08-26T22:32:44.022Z,22.01
2022-08-26T22:35:29.371Z,22.03
2022-08-26T22:37:59.195Z,22.03
2022-08-26T22:40:28.442Z,22.02
2022-08-26T22:42:58.812Z,21.93
2022-08-26T22:45:32.892Z,21.91
2022-08-26T22:48:04.689Z,21.84
2022-08-26T22:50:33.607Z,21.79
2022-08-26T22:53:02.771Z,21.69
2022-08-26T22:55:31.570Z,21.68
2022-08-26T22:58:01.192Z,21.65
2022-08-26T23:00:32.391Z,21.63
2022-08-26T23:03:01.992Z,21.64
2022-08-26T23:05:31.140Z,21.64
2022-08-26T23:08:00.268Z,21.59
2022-08-26T23:10:29.872Z,21.51
2022-08-26T23:12:58.574Z,21.47
2022-08-26T23:15:27.652Z,21.50
2022-08-26T23:18:03.132Z,21.46
2022-08-26T23:20:32.254Z,21.48
2022-08-26T23:23:01.826Z,21.50
2022-08-26T23:25:31.146Z,21.48
2022-08-26T23:28:01.864Z,21.47
2022-08-26T23:30:34.504Z,21.50
2022-08-26T23:33:04.670Z,21.48
2022-08-26T23:35:32.650Z,21.45
2022-08-26T23:38:01.841Z,21.41
2022-08-26T23:40:34.528Z,21.38
2022-08-26T23:43:08.120Z,21.35
2022-08-26T23:45:37.306Z,21.33
2022-08-26T23:48:08.058Z,21.33
2022-08-26T23:51:05.768Z,21.27
2022-08-26T23:53:34.532Z,21.22
2022-08-26T23:56:03.370Z,21.18
2022-08-26T23:58:31.964Z,21.14
